createdAt,value
2018-08-04T00:01:53.499Z,9.07
2018-08-04T00:04:21.989Z,9.30
2018-08-04T00:06:50.469Z,9.10
2018-08-04T00:09:18.965Z,10.60
2018-08-04T00:11:47.431Z,8.33
2018-08-04T00:14:15.937Z,8.20
2018-08-04T00:16:44.410Z,9.37
2018-08-04T00:19:12.910Z,10.17
2018-08-04T00:21:41.761Z,8.60
2018-08-04T00:24:10.461Z,8.83
2018-08-04T00:26:38.999Z,8.63
2018-08-04T00:29:07.473Z,9.37
2018-08-04T00:31:36.042Z,9.00
2018-08-04T00:34:04.505Z,9.30
2018-08-04T00:36:32.967Z,10.57
2018-08-04T00:39:01.479Z,8.90
2018-08-04T00:41:29.997Z,9.73
2018-08-04T00:43:58.709Z,8.23
2018-08-04T00:46:27.387Z,10.03
2018-08-04T00:48:56.167Z,9.83
2018-08-04T00:51:24.669Z,8.70
2018-08-04T00:53:53.223Z,10.53
2018-08-04T00:56:21.777Z,10.40
2018-08-04T00:58:50.256Z,9.40
2018-08-04T01:01:18.818Z,12.17
2018-08-04T01:03:47.408Z,10.63
2018-08-04T01:06:15.953Z,9.53
2018-08-04T01:08:44.490Z,9.57
2018-08-04T01:11:13.052Z,10.70
2018-08-04T01:13:41.715Z,10.47
2018-08-04T01:16:10.226Z,9.60
2018-08-04T01:18:38.751Z,10.87
2018-08-04T01:21:07.204Z,10.17
2018-08-04T01:23:35.708Z,9.80
2018-08-04T01:26:04.237Z,10.10
2018-08-04T01:28:32.842Z,9.77
2018-08-04T01:31:01.357Z,9.33
2018-08-04T01:33:30.060Z,11.60
2018-08-04T01:35:58.578Z,9.90
2018-08-04T01:38:27.179Z,10.27
2018-08-04T01:40:55.819Z,10.10
2018-08-04T01:43:24.321Z,10.40
2018-08-04T01:45:52.917Z,8.57
2018-08-04T01:48:21.430Z,10.77
2018-08-04T01:50:49.903Z,10.00
2018-08-04T01:53:18.403Z,9.30
2018-08-04T01:55:46.852Z,9.77
2018-08-04T01:58:15.297Z,11.83
2018-08-04T02:00:43.875Z,11.03
2018-08-04T02:03:12.387Z,10.63
2018-08-04T02:05:41.532Z,11.20
2018-08-04T02:08:09.738Z,11.23
2018-08-04T02:10:38.173Z,10.90
2018-08-04T02:13:06.613Z,10.23
2018-08-04T02:15:35.456Z,10.73
2018-08-04T02:18:03.918Z,10.70
2018-08-04T02:20:32.110Z,12.47
2018-08-04T02:23:00.590Z,10.43
2018-08-04T02:25:29.008Z,10.93
2018-08-04T02:27:58.327Z,11.20
2018-08-04T02:30:26.814Z,11.87
2018-08-04T02:32:55.286Z,10.77
2018-08-04T02:35:23.926Z,10.77
2018-08-04T02:37:52.355Z,11.30
2018-08-04T02:40:20.937Z,10.63
2018-08-04T02:42:49.409Z,10.00
2018-08-04T02:45:17.821Z,10.87
2018-08-04T02:47:45.969Z,11.90
2018-08-04T02:50:14.472Z,11.10
2018-08-04T02:52:43.002Z,12.07
2018-08-04T02:55:11.461Z,11.50
2018-08-04T02:57:39.906Z,10.63
2018-08-04T03:00:08.439Z,10.77
2018-08-04T03:02:36.937Z,10.00
2018-08-04T03:05:06.211Z,12.00
2018-08-04T03:07:34.641Z,10.37
2018-08-04T03:10:03.282Z,12.20
2018-08-04T03:12:31.761Z,14.53
2018-08-04T03:15:07.004Z,11.63
2018-08-04T03:17:35.519Z,11.80
2018-08-04T03:20:04.100Z,12.10
2018-08-04T03:22:32.628Z,12.23
2018-08-04T03:25:01.118Z,12.03
2018-08-04T03:27:29.508Z,11.90
2018-08-04T03:29:58.007Z,12.57
2018-08-04T03:32:26.538Z,11.87
2018-08-04T03:34:54.727Z,11.70
2018-08-04T03:37:24.132Z,11.10
2018-08-04T03:39:53.014Z,11.33
2018-08-04T03:42:21.189Z,11.53
2018-08-04T03:44:49.682Z,10.80
2018-08-04T03:47:18.200Z,12.10
2018-08-04T03:49:46.666Z,11.67
2018-08-04T03:52:15.191Z,11.80
2018-08-04T03:54:43.645Z,11.77
2018-08-04T03:57:12.545Z,11.47
2018-08-04T03:59:41.713Z,13.10
2018-08-04T04:02:10.326Z,11.97
2018-08-04T04:04:38.810Z,12.13
2018-08-04T04:07:07.958Z,11.33
2018-08-04T04:09:36.433Z,12.77
2018-08-04T04:12:04.974Z,11.73
2018-08-04T04:14:33.448Z,12.60
2018-08-04T04:17:01.951Z,12.80
2018-08-04T04:19:30.404Z,12.87
2018-08-04T04:21:58.902Z,13.20
2018-08-04T04:24:27.470Z,12.73
2018-08-04T04:26:56.141Z,12.47
2018-08-04T04:29:24.674Z,11.97
2018-08-04T04:31:52.785Z,13.83
2018-08-04T04:34:21.286Z,12.10
2018-08-04T04:36:49.733Z,12.53
2018-08-04T04:39:18.269Z,13.10
2018-08-04T04:41:46.690Z,14.00
2018-08-04T04:44:15.149Z,13.43
2018-08-04T04:46:43.335Z,14.43
2018-08-04T04:49:13.133Z,14.57
2018-08-04T04:51:42.137Z,13.63
2018-08-04T04:54:11.042Z,13.23
2018-08-04T04:56:39.486Z,14.37
2018-08-04T04:59:07.995Z,12.37
2018-08-04T05:01:36.512Z,14.73
2018-08-04T05:04:04.997Z,11.97
2018-08-04T05:06:33.457Z,13.20
2018-08-04T05:09:02.158Z,12.70
2018-08-04T05:11:30.606Z,13.53
2018-08-04T05:13:59.096Z,12.10
2018-08-04T05:16:27.610Z,13.73
2018-08-04T05:18:56.141Z,15.33
2018-08-04T05:21:24.442Z,14.87
2018-08-04T05:23:52.621Z,13.73
2018-08-04T05:26:21.089Z,13.97
2018-08-04T05:28:49.678Z,14.47
2018-08-04T05:31:18.218Z,14.63
2018-08-04T05:33:46.652Z,14.70
2018-08-04T05:36:15.178Z,15.33
2018-08-04T05:38:43.731Z,14.70
2018-08-04T05:41:12.413Z,15.10
2018-08-04T05:43:40.912Z,15.40
2018-08-04T05:46:09.640Z,14.40
2018-08-04T05:48:38.182Z,13.10
2018-08-04T05:51:07.109Z,14.70
2018-08-04T05:53:35.549Z,13.60
2018-08-04T05:56:04.016Z,15.27
2018-08-04T05:58:32.450Z,15.50
2018-08-04T06:01:00.668Z,14.93
2018-08-04T06:03:29.231Z,13.80
2018-08-04T06:05:57.717Z,14.57
2018-08-04T06:08:26.402Z,14.70
2018-08-04T06:10:54.887Z,13.73
2018-08-04T06:13:24.623Z,13.67
2018-08-04T06:15:53.386Z,13.17
2018-08-04T06:18:21.776Z,13.87
2018-08-04T06:20:50.259Z,12.70
2018-08-04T06:23:18.938Z,14.57
2018-08-04T06:25:47.721Z,13.80
2018-08-04T06:28:16.520Z,13.80
2018-08-04T06:30:45.133Z,12.87
2018-08-04T06:33:14.135Z,13.13
2018-08-04T06:35:42.609Z,13.83
2018-08-04T06:38:11.070Z,13.37
2018-08-04T06:40:39.610Z,15.23
2018-08-04T06:43:08.116Z,14.10
2018-08-04T06:45:37.373Z,13.00
2018-08-04T06:48:05.938Z,13.97
2018-08-04T06:50:34.513Z,14.30
2018-08-04T06:53:03.013Z,14.43
2018-08-04T06:55:31.751Z,13.30
2018-08-04T06:58:00.260Z,14.20
2018-08-04T07:00:28.995Z,14.30
2018-08-04T07:02:57.509Z,14.37
2018-08-04T07:05:26.063Z,15.37
2018-08-04T07:07:54.647Z,14.47
2018-08-04T07:10:23.153Z,13.07
2018-08-04T07:12:52.558Z,14.67
2018-08-04T07:15:21.738Z,12.20
2018-08-04T07:17:50.219Z,14.23
2018-08-04T07:20:18.700Z,13.10
2018-08-04T07:22:47.271Z,14.00
2018-08-04T07:25:15.771Z,14.00
2018-08-04T07:27:44.285Z,12.33
2018-08-04T07:30:14.461Z,14.17
2018-08-04T07:32:44.377Z,14.13
2018-08-04T07:35:12.936Z,12.37
2018-08-04T07:37:42.744Z,14.17
2018-08-04T07:40:10.939Z,12.60
2018-08-04T07:42:40.130Z,12.20
2018-08-04T07:45:08.511Z,13.40
2018-08-04T07:47:37.102Z,14.77
2018-08-04T07:50:05.273Z,12.90
2018-08-04T07:52:33.789Z,12.43
2018-08-04T07:55:02.326Z,12.70
2018-08-04T07:57:30.855Z,13.20
2018-08-04T07:59:59.649Z,13.67
2018-08-04T08:02:28.321Z,12.93
2018-08-04T08:04:56.997Z,13.30
2018-08-04T08:07:26.252Z,13.70
2018-08-04T08:09:55.482Z,13.30
2018-08-04T08:12:24.204Z,12.10
2018-08-04T08:14:53.048Z,13.17
2018-08-04T08:17:21.644Z,13.37
2018-08-04T08:19:50.139Z,12.90
2018-08-04T08:22:18.612Z,12.40
2018-08-04T08:24:47.254Z,13.37
2018-08-04T08:27:17.818Z,13.07
2018-08-04T08:29:46.463Z,13.43
2018-08-04T08:32:15.054Z,11.50
2018-08-04T08:34:43.336Z,13.20
2018-08-04T08:37:11.557Z,14.20
2018-08-04T08:39:40.160Z,16.73
2018-08-04T08:42:08.816Z,13.03
2018-08-04T08:44:37.385Z,12.00
2018-08-04T08:47:06.478Z,13.07
2018-08-04T08:49:35.080Z,12.33
2018-08-04T08:52:03.667Z,12.63
2018-08-04T08:54:33.318Z,13.70
2018-08-04T08:57:01.843Z,12.17
2018-08-04T08:59:30.554Z,11.13
2018-08-04T09:01:59.035Z,13.27
2018-08-04T09:04:27.606Z,13.07
2018-08-04T09:06:56.142Z,12.73
2018-08-04T09:09:24.626Z,12.40
2018-08-04T09:11:53.116Z,10.63
2018-08-04T09:14:21.604Z,11.00
2018-08-04T09:16:49.914Z,12.83
2018-08-04T09:19:18.883Z,11.60
2018-08-04T09:21:47.414Z,11.03
2018-08-04T09:24:15.932Z,9.40
2018-08-04T09:26:44.661Z,8.97
2018-08-04T09:29:13.149Z,10.23
2018-08-04T09:31:41.825Z,9.97
2018-08-04T09:34:10.371Z,9.90
2018-08-04T09:36:38.823Z,12.23
2018-08-04T09:39:10.115Z,10.77
2018-08-04T09:41:39.072Z,10.80
2018-08-04T09:44:07.539Z,10.00
2018-08-04T09:46:36.047Z,9.80
2018-08-04T09:49:04.345Z,10.60
2018-08-04T09:51:32.815Z,10.50
2018-08-04T09:54:01.427Z,10.00
2018-08-04T09:56:30.141Z,9.87
2018-08-04T09:59:05.264Z,9.47
2018-08-04T10:01:35.791Z,9.10
2018-08-04T10:04:05.363Z,9.53
2018-08-04T10:06:34.051Z,9.13
2018-08-04T10:09:02.671Z,9.40
2018-08-04T10:11:31.166Z,9.87
2018-08-04T10:13:59.736Z,10.33
2018-08-04T10:16:28.375Z,8.90
2018-08-04T10:18:56.843Z,8.97
2018-08-04T10:21:25.415Z,9.13
2018-08-04T10:23:53.856Z,9.53
2018-08-04T10:26:22.341Z,9.47
2018-08-04T10:28:51.017Z,8.80
2018-08-04T10:31:19.478Z,8.53
2018-08-04T10:33:48.003Z,8.40
2018-08-04T10:36:16.462Z,10.03
2018-08-04T10:38:45.010Z,8.50
2018-08-04T10:41:13.172Z,8.30
2018-08-04T10:43:41.699Z,7.80
2018-08-04T10:46:10.337Z,6.97
2018-08-04T10:48:38.823Z,7.70
2018-08-04T10:51:07.346Z,7.60
2018-08-04T10:53:36.014Z,6.03
2018-08-04T10:56:04.546Z,6.93
2018-08-04T10:58:33.635Z,8.30
2018-08-04T11:01:02.199Z,7.10
2018-08-04T11:03:31.291Z,7.60
2018-08-04T11:06:00.091Z,6.20
2018-08-04T11:08:28.657Z,8.60
2018-08-04T11:10:57.192Z,9.20
2018-08-04T11:13:25.882Z,8.07
2018-08-04T11:15:54.623Z,8.17
2018-08-04T11:18:23.177Z,7.10
2018-08-04T11:20:51.984Z,6.10
2018-08-04T11:23:20.466Z,5.30
2018-08-04T11:25:49.186Z,5.33
2018-08-04T11:28:17.627Z,4.97
2018-08-04T11:30:46.355Z,5.77
2018-08-04T11:33:14.819Z,5.40
2018-08-04T11:35:43.237Z,5.10
2018-08-04T11:38:11.721Z,5.07
2018-08-04T11:40:40.364Z,5.70
2018-08-04T11:43:08.953Z,5.07
2018-08-04T11:45:37.737Z,6.00
2018-08-04T11:48:06.302Z,5.50
2018-08-04T11:50:34.786Z,5.80
2018-08-04T11:53:03.367Z,6.87
2018-08-04T11:55:31.817Z,7.00
2018-08-04T11:58:00.352Z,6.47
2018-08-04T12:00:28.825Z,6.13
2018-08-04T12:02:57.343Z,5.63
2018-08-04T12:05:25.849Z,6.37
2018-08-04T12:07:54.317Z,6.60
2018-08-04T12:10:22.551Z,6.60
2018-08-04T12:12:51.093Z,6.57
2018-08-04T12:15:19.622Z,6.13
2018-08-04T12:17:48.155Z,5.70
2018-08-04T12:20:16.750Z,5.93
2018-08-04T12:22:45.286Z,5.70
2018-08-04T12:25:14.035Z,6.30
2018-08-04T12:27:42.596Z,7.97
2018-08-04T12:30:11.164Z,7.33
2018-08-04T12:32:40.201Z,7.40
2018-08-04T12:35:09.398Z,7.43
2018-08-04T12:37:37.988Z,7.10
2018-08-04T12:40:06.787Z,7.13
2018-08-04T12:42:34.959Z,6.40
2018-08-04T12:45:04.224Z,7.63
2018-08-04T12:47:32.773Z,6.83
2018-08-04T12:50:01.290Z,7.57
2018-08-04T12:52:29.919Z,6.77
2018-08-04T12:54:58.371Z,6.70
2018-08-04T12:57:26.983Z,6.10
2018-08-04T12:59:55.997Z,6.20
2018-08-04T13:02:24.427Z,6.97
2018-08-04T13:04:52.913Z,6.80
2018-08-04T13:07:21.415Z,7.13
2018-08-04T13:09:49.894Z,7.13
2018-08-04T13:12:18.550Z,5.70
2018-08-04T13:14:47.269Z,7.17
2018-08-04T13:17:15.929Z,6.30
2018-08-04T13:19:44.428Z,7.40
2018-08-04T13:22:12.951Z,7.50
2018-08-04T13:24:41.180Z,6.93
2018-08-04T13:27:09.658Z,6.33
2018-08-04T13:29:38.214Z,7.00
2018-08-04T13:32:06.384Z,7.20
2018-08-04T13:34:34.883Z,8.07
2018-08-04T13:37:03.647Z,8.60
2018-08-04T13:39:31.853Z,7.83
2018-08-04T13:42:00.360Z,7.57
2018-08-04T13:44:28.923Z,8.27
2018-08-04T13:46:57.441Z,8.17
2018-08-04T13:49:26.039Z,8.40
2018-08-04T13:51:54.559Z,6.60
2018-08-04T13:54:23.044Z,7.50
2018-08-04T13:56:51.506Z,7.43
2018-08-04T13:59:19.884Z,8.13
2018-08-04T14:01:48.748Z,8.57
2018-08-04T14:04:17.310Z,7.83
2018-08-04T14:06:45.782Z,7.37
2018-08-04T14:09:14.182Z,7.33
2018-08-04T14:11:42.663Z,7.00
2018-08-04T14:14:11.094Z,6.50
2018-08-04T14:16:39.587Z,7.90
2018-08-04T14:19:08.277Z,6.00
2018-08-04T14:21:37.301Z,7.27
2018-08-04T14:24:06.036Z,7.50
2018-08-04T14:26:34.827Z,7.23
2018-08-04T14:29:03.336Z,7.80
2018-08-04T14:31:31.865Z,7.43
2018-08-04T14:34:00.275Z,6.80
2018-08-04T14:36:28.860Z,7.40
2018-08-04T14:38:57.335Z,7.43
2018-08-04T14:41:26.144Z,7.50
2018-08-04T14:43:54.683Z,7.73
2018-08-04T14:46:23.291Z,6.57
2018-08-04T14:48:51.801Z,6.70
2018-08-04T14:51:20.314Z,8.00
2018-08-04T14:53:49.329Z,6.93
2018-08-04T14:56:18.599Z,7.50
2018-08-04T14:58:47.117Z,8.30
2018-08-04T15:01:15.629Z,8.10
2018-08-04T15:03:44.249Z,7.53
2018-08-04T15:06:12.982Z,6.70
2018-08-04T15:08:41.479Z,7.00
2018-08-04T15:11:09.933Z,7.20
2018-08-04T15:13:38.289Z,8.20
2018-08-04T15:16:06.561Z,8.17
2018-08-04T15:18:34.690Z,7.03
2018-08-04T15:21:03.357Z,7.50
2018-08-04T15:23:32.140Z,6.80
2018-08-04T15:26:01.444Z,7.00
2018-08-04T15:28:29.995Z,6.13
2018-08-04T15:30:58.417Z,6.33
2018-08-04T15:33:27.249Z,6.30
2018-08-04T15:35:56.428Z,8.20
2018-08-04T15:38:25.335Z,6.97
2018-08-04T15:40:53.877Z,7.07
2018-08-04T15:43:23.057Z,6.50
2018-08-04T15:45:51.535Z,7.60
2018-08-04T15:48:20.240Z,7.00
2018-08-04T15:50:48.902Z,7.60
2018-08-04T15:53:17.408Z,7.83
2018-08-04T15:55:46.315Z,7.70
2018-08-04T15:58:14.841Z,6.93
2018-08-04T16:00:43.466Z,7.53
2018-08-04T16:03:11.949Z,6.37
2018-08-04T16:05:40.485Z,7.53
2018-08-04T16:08:08.688Z,7.60
2018-08-04T16:10:37.476Z,7.40
2018-08-04T16:13:05.991Z,8.00
2018-08-04T16:15:34.622Z,8.10
2018-08-04T16:18:02.868Z,7.40
2018-08-04T16:20:31.367Z,8.80
2018-08-04T16:22:59.598Z,7.93
2018-08-04T16:25:28.058Z,7.53
2018-08-04T16:27:56.743Z,7.30
2018-08-04T16:30:25.581Z,8.30
2018-08-04T16:32:54.146Z,7.40
2018-08-04T16:35:22.986Z,7.93
2018-08-04T16:37:51.546Z,7.23
2018-08-04T16:40:20.089Z,10.07
2018-08-04T16:42:48.756Z,7.90
2018-08-04T16:45:17.404Z,8.13
2018-08-04T16:47:45.871Z,7.83
2018-08-04T16:50:14.587Z,7.73
2018-08-04T16:52:42.780Z,8.90
2018-08-04T16:55:11.585Z,7.27
2018-08-04T16:57:40.205Z,8.73
2018-08-04T17:00:09.065Z,8.03
2018-08-04T17:02:37.566Z,8.33
2018-08-04T17:05:06.219Z,8.33
2018-08-04T17:07:34.797Z,8.07
2018-08-04T17:10:03.375Z,7.97
2018-08-04T17:12:31.875Z,7.80
2018-08-04T17:15:00.524Z,7.90
2018-08-04T17:17:29.317Z,8.27
2018-08-04T17:19:57.465Z,8.37
2018-08-04T17:22:26.030Z,9.03
2018-08-04T17:24:54.660Z,8.40
2018-08-04T17:27:23.201Z,8.80
2018-08-04T17:29:51.709Z,8.87
2018-08-04T17:32:20.392Z,9.00
2018-08-04T17:34:48.872Z,8.17
2018-08-04T17:37:17.487Z,9.23
2018-08-04T17:39:45.948Z,9.03
2018-08-04T17:42:14.494Z,8.70
2018-08-04T17:44:43.310Z,8.87
2018-08-04T17:47:11.847Z,8.73
2018-08-04T17:49:40.551Z,8.90
2018-08-04T17:52:09.054Z,8.90
2018-08-04T17:54:37.788Z,8.33
2018-08-04T17:57:06.534Z,8.30
2018-08-04T17:59:35.067Z,8.53
2018-08-04T18:02:03.863Z,8.67
2018-08-04T18:04:32.407Z,8.43
2018-08-04T18:07:00.961Z,8.63
2018-08-04T18:09:29.565Z,9.00
2018-08-04T18:11:58.200Z,9.10
2018-08-04T18:14:26.798Z,8.67
2018-08-04T18:16:55.291Z,8.93
2018-08-04T18:19:23.886Z,8.00
2018-08-04T18:21:52.382Z,8.93
2018-08-04T18:24:21.901Z,9.10
2018-08-04T18:26:50.460Z,8.10
2018-08-04T18:29:18.597Z,9.47
2018-08-04T18:31:47.162Z,9.77
2018-08-04T18:34:15.851Z,8.43
2018-08-04T18:36:44.326Z,9.70
2018-08-04T18:39:13.024Z,8.40
2018-08-04T18:41:41.588Z,9.40
2018-08-04T18:44:10.067Z,8.33
2018-08-04T18:46:38.559Z,7.77
2018-08-04T18:49:07.341Z,8.93
2018-08-04T18:51:35.848Z,10.67
2018-08-04T18:54:04.369Z,9.00
2018-08-04T18:56:32.797Z,10.67
2018-08-04T18:59:01.401Z,10.13
2018-08-04T19:01:30.242Z,12.20
2018-08-04T19:03:58.829Z,12.30
2018-08-04T19:06:27.337Z,11.93
2018-08-04T19:08:56.323Z,11.87
2018-08-04T19:11:26.232Z,11.00
2018-08-04T19:13:56.225Z,10.97
2018-08-04T19:16:24.718Z,10.70
2018-08-04T19:18:53.275Z,11.20
2018-08-04T19:21:21.664Z,10.57
2018-08-04T19:23:50.195Z,11.00
2018-08-04T19:26:18.673Z,9.80
2018-08-04T19:28:47.205Z,10.77
2018-08-04T19:31:15.462Z,11.83
2018-08-04T19:33:44.021Z,11.17
2018-08-04T19:36:12.915Z,9.30
2018-08-04T19:38:41.564Z,11.53
2018-08-04T19:41:10.294Z,11.30
2018-08-04T19:43:39.005Z,11.43
2018-08-04T19:46:07.987Z,11.73
2018-08-04T19:48:36.834Z,12.90
2018-08-04T19:51:05.670Z,20.13
2018-08-04T19:53:34.166Z,12.07
2018-08-04T19:56:02.686Z,9.50
2018-08-04T19:58:31.249Z,11.17
2018-08-04T20:00:59.751Z,4.90
2018-08-04T20:03:28.301Z,4.20
2018-08-04T20:05:56.813Z,8.20
2018-08-04T20:08:25.370Z,9.70
2018-08-04T20:10:53.818Z,8.30
2018-08-04T20:13:22.360Z,9.63
2018-08-04T20:15:50.841Z,7.87
2018-08-04T20:18:19.432Z,9.20
2018-08-04T20:20:47.910Z,9.73
2018-08-04T20:23:16.437Z,9.90
2018-08-04T20:25:45.093Z,11.13
2018-08-04T20:28:13.741Z,9.57
2018-08-04T20:30:42.244Z,10.30
2018-08-04T20:33:11.043Z,11.00
2018-08-04T20:35:39.618Z,10.43
2018-08-04T20:38:08.126Z,9.87
2018-08-04T20:40:36.806Z,10.10
2018-08-04T20:43:05.575Z,12.07
2018-08-04T20:45:34.255Z,10.80
2018-08-04T20:48:02.890Z,11.00
2018-08-04T20:50:31.361Z,11.77
2018-08-04T20:52:59.902Z,11.10
2018-08-04T20:55:28.495Z,10.97
2018-08-04T20:57:57.194Z,11.60
2018-08-04T21:00:25.750Z,10.47
2018-08-04T21:02:54.233Z,11.87
2018-08-04T21:05:23.101Z,11.40
2018-08-04T21:07:51.277Z,10.20
2018-08-04T21:10:19.834Z,12.17
2018-08-04T21:12:48.348Z,11.40
2018-08-04T21:15:16.830Z,11.70
2018-08-04T21:17:45.306Z,12.43
2018-08-04T21:20:13.786Z,12.17
2018-08-04T21:22:42.343Z,12.50
2018-08-04T21:25:10.838Z,13.50
2018-08-04T21:27:39.318Z,11.67
2018-08-04T21:30:07.883Z,12.40
2018-08-04T21:32:36.373Z,11.70
2018-08-04T21:35:04.862Z,12.67
2018-08-04T21:37:33.078Z,10.90
2018-08-04T21:40:01.614Z,11.50
2018-08-04T21:42:29.831Z,11.97
2018-08-04T21:44:58.325Z,12.53
2018-08-04T21:47:26.797Z,11.33
2018-08-04T21:49:55.229Z,12.20
2018-08-04T21:52:23.817Z,11.30
2018-08-04T21:54:52.042Z,13.27
2018-08-04T21:57:20.845Z,13.43
2018-08-04T21:59:49.423Z,13.07
2018-08-04T22:02:18.102Z,13.53
2018-08-04T22:04:46.566Z,12.70
2018-08-04T22:07:51.765Z,13.20
2018-08-04T22:10:20.211Z,12.40
2018-08-04T22:12:48.737Z,12.23
2018-08-04T22:15:17.386Z,12.47
2018-08-04T22:17:46.057Z,10.23
2018-08-04T22:20:16.753Z,11.10
2018-08-04T22:22:45.544Z,11.33
2018-08-04T22:25:16.287Z,10.80
2018-08-04T22:27:44.840Z,10.30
2018-08-04T22:30:16.721Z,10.73
2018-08-04T22:32:46.050Z,10.80
2018-08-04T22:35:14.578Z,10.27
2018-08-04T22:37:43.381Z,9.87
2018-08-04T22:40:13.110Z,10.87
2018-08-04T22:42:42.011Z,10.90
2018-08-04T22:45:54.418Z,10.50
2018-08-04T22:48:23.519Z,9.43
2018-08-04T22:50:52.092Z,9.10
2018-08-04T22:53:20.622Z,9.47
2018-08-04T22:55:49.135Z,8.80
2018-08-04T22:58:17.585Z,8.60
2018-08-04T23:00:46.059Z,8.23
2018-08-04T23:03:15.121Z,8.73
2018-08-04T23:05:43.594Z,8.90
2018-08-04T23:08:13.022Z,8.30
2018-08-04T23:10:42.072Z,9.40
2018-08-04T23:13:10.897Z,9.77
2018-08-04T23:15:39.594Z,8.60
2018-08-04T23:18:08.590Z,8.90
2018-08-04T23:20:37.236Z,7.47
2018-08-04T23:23:06.043Z,7.80
2018-08-04T23:25:34.585Z,9.67
2018-08-04T23:28:03.105Z,8.07
2018-08-04T23:30:31.900Z,7.13
2018-08-04T23:33:00.393Z,8.13
2018-08-04T23:35:29.116Z,7.50
2018-08-04T23:37:57.788Z,7.67
2018-08-04T23:40:26.457Z,6.77
2018-08-04T23:42:55.080Z,7.77
2018-08-04T23:45:23.465Z,6.80
2018-08-04T23:47:51.672Z,5.83
2018-08-04T23:50:20.326Z,6.40
2018-08-04T23:52:48.782Z,7.03
2018-08-04T23:55:17.277Z,5.90
2018-08-04T23:57:45.714Z,6.63
